createdAt,value
2019-05-12T00:00:32.259Z,2.40
2019-05-12T00:03:00.647Z,2.33
2019-05-12T00:05:28.795Z,2.20
2019-05-12T00:07:58.908Z,2.33
2019-05-12T00:10:28.241Z,2.67
2019-05-12T00:12:58.166Z,2.37
2019-05-12T00:15:27.976Z,2.40
2019-05-12T00:17:58.693Z,2.30
2019-05-12T00:20:28.383Z,2.37
2019-05-12T00:22:59.764Z,2.37
2019-05-12T00:25:28.424Z,2.40
2019-05-12T00:27:58.613Z,2.77
2019-05-12T00:30:39.100Z,2.33
2019-05-12T00:33:09.353Z,2.40
2019-05-12T00:35:38.190Z,2.50
2019-05-12T00:38:08.682Z,2.73
2019-05-12T00:40:39.192Z,2.77
2019-05-12T00:43:09.659Z,3.00
2019-05-12T00:45:38.798Z,3.23
2019-05-12T00:48:09.013Z,2.80
2019-05-12T00:50:38.195Z,2.90
2019-05-12T00:53:08.995Z,2.63
2019-05-12T00:55:38.157Z,2.67
2019-05-12T00:58:08.219Z,2.67
2019-05-12T01:00:40.510Z,2.50
2019-05-12T01:03:08.726Z,2.83
2019-05-12T01:05:38.339Z,2.70
2019-05-12T01:08:08.987Z,2.40
2019-05-12T01:10:38.886Z,2.53
2019-05-12T01:13:08.536Z,2.43
2019-05-12T01:15:37.814Z,2.47
2019-05-12T01:18:08.914Z,2.13
2019-05-12T01:20:39.038Z,2.30
2019-05-12T01:23:08.502Z,2.10
2019-05-12T01:25:39.108Z,2.10
2019-05-12T01:28:08.095Z,1.93
2019-05-12T01:30:38.698Z,1.87
2019-05-12T01:33:08.531Z,2.17
2019-05-12T01:35:38.816Z,1.90
2019-05-12T01:38:07.974Z,1.83
2019-05-12T01:40:38.543Z,1.83
2019-05-12T01:43:08.783Z,1.73
2019-05-12T01:45:38.446Z,1.60
2019-05-12T01:48:08.673Z,1.50
2019-05-12T01:50:38.644Z,1.73
2019-05-12T01:53:08.753Z,1.90
2019-05-12T01:55:39.910Z,1.67
2019-05-12T01:58:08.579Z,1.90
2019-05-12T02:00:38.696Z,1.97
2019-05-12T02:03:08.990Z,2.00
2019-05-12T02:05:40.320Z,1.63
2019-05-12T02:08:12.138Z,1.80
2019-05-12T02:10:40.330Z,1.80
2019-05-12T02:13:08.367Z,1.90
2019-05-12T02:15:38.272Z,1.67
2019-05-12T02:18:08.780Z,1.73
2019-05-12T02:20:38.103Z,1.60
2019-05-12T02:23:08.890Z,1.70
2019-05-12T02:25:38.072Z,1.87
2019-05-12T02:28:08.803Z,1.87
2019-05-12T02:30:40.751Z,1.83
2019-05-12T02:33:06.795Z,2.03
2019-05-12T02:35:35.646Z,1.80
2019-05-12T02:38:05.030Z,2.30
2019-05-12T02:40:34.696Z,1.70
2019-05-12T02:43:05.309Z,1.87
2019-05-12T02:45:35.758Z,1.90
2019-05-12T02:48:05.008Z,1.90
2019-05-12T02:50:36.398Z,1.80
2019-05-12T02:53:05.790Z,1.93
2019-05-12T02:55:35.630Z,1.90
2019-05-12T02:58:04.969Z,1.50
2019-05-12T03:00:35.941Z,1.87
2019-05-12T03:03:07.471Z,1.87
2019-05-12T03:05:37.163Z,1.80
2019-05-12T03:08:05.394Z,1.87
2019-05-12T03:10:35.542Z,1.63
2019-05-12T03:13:04.436Z,2.03
2019-05-12T03:15:36.183Z,1.83
2019-05-12T03:18:06.048Z,2.10
2019-05-12T03:20:35.096Z,1.90
2019-05-12T03:23:05.859Z,1.67
2019-05-12T03:25:35.643Z,2.03
2019-05-12T03:28:08.190Z,1.87
2019-05-12T03:30:38.340Z,1.80
2019-05-12T03:33:09.306Z,2.20
2019-05-12T03:35:42.594Z,1.80
2019-05-12T03:38:07.120Z,2.03
2019-05-12T03:40:38.471Z,1.77
2019-05-12T03:43:05.782Z,2.13
2019-05-12T03:45:35.811Z,1.73
2019-05-12T03:48:04.857Z,1.87
2019-05-12T03:50:35.289Z,2.10
2019-05-12T03:53:09.486Z,2.10
2019-05-12T03:55:39.445Z,2.07
2019-05-12T03:58:04.870Z,2.30
2019-05-12T04:00:35.862Z,1.83
2019-05-12T04:03:05.004Z,2.23
2019-05-12T04:05:34.997Z,1.70
2019-05-12T04:08:05.543Z,1.93
2019-05-12T04:10:35.307Z,1.97
2019-05-12T04:13:04.761Z,2.13
2019-05-12T04:15:34.779Z,2.13
2019-05-12T04:18:05.851Z,1.87
2019-05-12T04:20:35.621Z,1.87
2019-05-12T04:23:07.428Z,2.23
2019-05-12T04:28:17.560Z,2.10
2019-05-12T04:30:45.717Z,2.20
2019-05-12T04:33:15.506Z,2.13
2019-05-12T04:35:45.256Z,2.07
2019-05-12T04:38:14.821Z,2.20
2019-05-12T04:40:45.058Z,1.93
2019-05-12T04:43:14.605Z,2.27
2019-05-12T04:45:45.165Z,2.40
2019-05-12T04:48:15.616Z,2.03
2019-05-12T04:50:45.240Z,2.30
2019-05-12T04:53:14.350Z,2.20
2019-05-12T04:55:44.743Z,2.30
2019-05-12T04:58:15.581Z,2.10
2019-05-12T05:00:45.559Z,2.20
2019-05-12T05:03:14.355Z,2.43
2019-05-12T05:05:44.449Z,2.30
2019-05-12T05:08:14.519Z,2.70
2019-05-12T05:10:44.313Z,2.50
2019-05-12T05:13:15.001Z,2.27
2019-05-12T05:15:44.568Z,2.33
2019-05-12T05:18:13.407Z,2.67
2019-05-12T05:20:43.687Z,2.80
2019-05-12T05:23:13.908Z,2.87
2019-05-12T05:25:43.496Z,3.00
2019-05-12T05:28:11.673Z,3.47
2019-05-12T05:30:39.776Z,3.53
2019-05-12T05:33:07.914Z,3.47
2019-05-12T05:35:39.597Z,3.40
2019-05-12T05:38:10.770Z,3.37
2019-05-12T05:40:36.508Z,3.80
2019-05-12T05:43:12.632Z,3.57
2019-05-12T05:45:35.731Z,3.73
2019-05-12T05:48:05.572Z,3.90
2019-05-12T05:50:34.424Z,3.30
2019-05-12T05:53:04.269Z,3.63
2019-05-12T05:55:34.452Z,3.73
2019-05-12T05:58:05.827Z,3.60
2019-05-12T06:00:35.103Z,3.57
2019-05-12T06:03:05.264Z,3.10
2019-05-12T06:05:34.625Z,3.40
2019-05-12T06:08:04.202Z,2.90
2019-05-12T06:10:36.281Z,2.87
2019-05-12T06:15:40.963Z,3.00
2019-05-12T06:18:13.432Z,2.60
2019-05-12T06:20:41.003Z,2.63
2019-05-12T06:23:09.139Z,2.57
2019-05-12T06:25:54.722Z,2.33
2019-05-12T06:28:08.938Z,2.57
2019-05-12T06:30:44.507Z,2.23
2019-05-12T06:33:07.111Z,2.30
2019-05-12T06:35:42.121Z,2.33
2019-05-12T06:38:05.510Z,2.10
2019-05-12T06:40:40.222Z,2.50
2019-05-12T06:43:04.366Z,2.20
2019-05-12T06:45:42.095Z,2.30
2019-05-12T06:48:04.745Z,1.97
2019-05-12T06:50:38.680Z,1.90
2019-05-12T06:53:05.242Z,1.80
2019-05-12T06:55:38.809Z,1.93
2019-05-12T06:58:04.808Z,1.80
2019-05-12T07:00:35.129Z,1.73
2019-05-12T07:03:03.974Z,1.80
2019-05-12T07:05:38.013Z,1.87
2019-05-12T07:08:04.799Z,2.07
2019-05-12T07:10:41.687Z,2.00
2019-05-12T07:13:05.484Z,1.50
2019-05-12T07:15:38.142Z,1.77
2019-05-12T07:18:07.723Z,1.80
2019-05-12T07:20:38.985Z,1.67
2019-05-12T07:23:06.162Z,1.80
2019-05-12T07:25:36.657Z,1.60
2019-05-12T07:28:07.912Z,1.90
2019-05-12T07:30:35.314Z,1.80
2019-05-12T07:33:04.443Z,1.40
2019-05-12T07:35:33.988Z,1.53
2019-05-12T07:38:04.743Z,1.63
2019-05-12T07:40:34.720Z,1.93
2019-05-12T07:43:04.036Z,1.70
2019-05-12T07:45:34.078Z,1.67
2019-05-12T07:48:05.612Z,1.60
2019-05-12T07:50:34.508Z,2.13
2019-05-12T07:53:04.027Z,1.47
2019-05-12T07:55:34.172Z,2.10
2019-05-12T07:58:10.019Z,1.80
2019-05-12T08:00:33.914Z,1.93
2019-05-12T08:03:08.072Z,1.70
2019-05-12T08:05:33.743Z,1.77
2019-05-12T08:08:09.109Z,1.57
2019-05-12T08:10:34.208Z,1.63
2019-05-12T08:13:04.341Z,1.80
2019-05-12T08:15:33.948Z,1.53
2019-05-12T08:18:07.451Z,1.63
2019-05-12T08:20:34.375Z,1.80
2019-05-12T08:23:05.817Z,1.93
2019-05-12T08:25:34.270Z,1.67
2019-05-12T08:28:14.526Z,1.53
2019-05-12T08:30:40.502Z,1.70
2019-05-12T08:33:09.699Z,1.67
2019-05-12T08:35:38.498Z,1.80
2019-05-12T08:38:06.608Z,1.80
2019-05-12T08:40:39.851Z,1.53
2019-05-12T08:43:10.358Z,1.80
2019-05-12T08:45:37.593Z,1.90
2019-05-12T08:48:10.136Z,1.83
2019-05-12T08:50:36.123Z,1.90
2019-05-12T08:53:04.898Z,2.07
2019-05-12T08:55:35.900Z,1.90
2019-05-12T08:58:04.385Z,2.17
2019-05-12T09:00:46.517Z,2.03
2019-05-12T09:03:09.214Z,1.90
2019-05-12T09:05:38.735Z,1.87
2019-05-12T09:08:07.048Z,1.63
2019-05-12T09:10:35.168Z,1.80
2019-05-12T09:13:04.165Z,1.60
2019-05-12T09:15:34.624Z,2.03
2019-05-12T09:18:04.877Z,1.80
2019-05-12T09:20:33.386Z,1.67
2019-05-12T09:23:02.755Z,1.77
2019-05-12T09:25:33.836Z,2.07
2019-05-12T09:28:03.889Z,2.17
2019-05-12T09:30:33.617Z,2.73
2019-05-12T09:33:04.042Z,2.90
2019-05-12T09:35:34.781Z,2.80
2019-05-12T09:38:03.692Z,2.67
2019-05-12T09:40:35.665Z,3.30
2019-05-12T09:43:08.691Z,2.23
2019-05-12T09:45:34.091Z,2.13
2019-05-12T09:48:04.788Z,2.00
2019-05-12T09:50:34.104Z,2.03
2019-05-12T09:53:09.750Z,2.37
2019-05-12T09:55:34.247Z,2.43
2019-05-12T09:58:03.974Z,2.30
2019-05-12T10:00:35.957Z,2.30
2019-05-12T10:03:04.815Z,2.83
2019-05-12T10:05:39.308Z,2.50
2019-05-12T10:08:04.490Z,2.40
2019-05-12T10:10:38.182Z,2.57
2019-05-12T10:13:04.722Z,2.63
2019-05-12T10:15:33.354Z,2.60
2019-05-12T10:18:06.414Z,2.37
2019-05-12T10:20:39.547Z,2.33
2019-05-12T10:23:04.599Z,2.20
2019-05-12T10:25:33.897Z,1.97
2019-05-12T10:28:11.140Z,2.13
2019-05-12T10:30:34.248Z,3.40
2019-05-12T10:33:03.885Z,2.30
2019-05-12T10:35:34.693Z,2.00
2019-05-12T10:38:06.291Z,2.30
2019-05-12T10:40:33.894Z,2.17
2019-05-12T10:43:04.658Z,1.93
2019-05-12T10:45:33.219Z,1.90
2019-05-12T10:48:03.578Z,2.07
2019-05-12T10:50:33.818Z,1.80
2019-05-12T10:53:04.209Z,1.90
2019-05-12T10:55:33.539Z,1.80
2019-05-12T10:58:06.561Z,2.13
2019-05-12T11:00:33.863Z,1.90
2019-05-12T11:03:09.678Z,1.97
2019-05-12T11:05:33.988Z,1.77
2019-05-12T11:08:06.530Z,1.90
2019-05-12T11:10:32.841Z,1.90
2019-05-12T11:13:05.925Z,1.90
2019-05-12T11:15:34.209Z,2.10
2019-05-12T11:18:08.703Z,2.00
2019-05-12T11:20:36.844Z,1.90
2019-05-12T11:23:04.937Z,2.30
2019-05-12T11:25:33.972Z,2.00
2019-05-12T11:28:03.704Z,1.70
2019-05-12T11:30:34.289Z,2.03
2019-05-12T11:33:04.200Z,1.87
2019-05-12T11:35:32.567Z,1.90
2019-05-12T11:38:00.690Z,1.80
2019-05-12T11:40:28.710Z,1.83
2019-05-12T11:43:01.047Z,2.00
2019-05-12T11:45:26.906Z,1.90
2019-05-12T11:47:59.128Z,2.07
2019-05-12T11:50:25.920Z,1.63
2019-05-12T11:52:54.032Z,1.63
2019-05-12T11:55:29.855Z,2.03
2019-05-12T11:57:54.497Z,1.70
2019-05-12T12:00:25.582Z,1.80
2019-05-12T12:02:53.677Z,2.00
2019-05-12T12:05:23.577Z,1.90
2019-05-12T12:07:53.433Z,1.83
2019-05-12T12:10:23.403Z,1.90
2019-05-12T12:12:53.976Z,2.00
2019-05-12T12:15:26.416Z,2.03
2019-05-12T12:17:53.617Z,2.10
2019-05-12T12:20:22.975Z,1.90
2019-05-12T12:22:54.115Z,1.90
2019-05-12T12:25:27.793Z,1.93
2019-05-12T12:27:56.093Z,1.97
2019-05-12T12:30:24.358Z,2.23
2019-05-12T12:32:56.878Z,1.70
2019-05-12T12:35:23.386Z,1.90
2019-05-12T12:37:53.937Z,2.17
2019-05-12T12:40:21.663Z,1.87
2019-05-12T12:42:49.765Z,1.70
2019-05-12T12:45:23.963Z,1.70
2019-05-12T12:47:54.039Z,1.83
2019-05-12T12:50:26.325Z,2.00
2019-05-12T12:52:53.414Z,2.00
2019-05-12T12:55:23.416Z,2.00
2019-05-12T12:57:51.724Z,2.27
2019-05-12T13:00:29.749Z,2.13
2019-05-12T13:02:50.751Z,1.93
2019-05-12T13:05:19.116Z,2.00
2019-05-12T13:07:47.682Z,2.00
2019-05-12T13:10:16.748Z,2.00
2019-05-12T13:12:45.057Z,2.10
2019-05-12T13:15:14.602Z,2.20
2019-05-12T13:17:44.718Z,1.60
2019-05-12T13:20:13.544Z,2.17
2019-05-12T13:22:44.216Z,1.90
2019-05-12T13:25:14.210Z,2.00
2019-05-12T13:27:42.260Z,2.03
2019-05-12T13:30:16.271Z,1.97
2019-05-12T13:32:40.982Z,1.77
2019-05-12T13:35:09.775Z,2.00
2019-05-12T13:37:39.265Z,2.00
2019-05-12T13:40:07.768Z,1.90
2019-05-12T13:42:37.479Z,1.83
2019-05-12T13:45:06.683Z,1.70
2019-05-12T13:47:39.684Z,2.00
2019-05-12T13:50:06.359Z,1.97
2019-05-12T13:52:34.468Z,1.90
2019-05-12T13:55:05.521Z,1.90
2019-05-12T13:57:34.257Z,2.23
2019-05-12T14:00:09.197Z,1.70
2019-05-12T14:02:33.612Z,1.70
2019-05-12T14:05:07.110Z,1.90
2019-05-12T14:07:34.531Z,1.80
2019-05-12T14:10:03.708Z,1.60
2019-05-12T14:12:32.050Z,1.70
2019-05-12T14:15:00.195Z,1.80
2019-05-12T14:17:31.105Z,1.50
2019-05-12T14:19:59.723Z,1.93
2019-05-12T14:22:27.740Z,1.60
2019-05-12T14:24:55.819Z,1.43
2019-05-12T14:27:28.510Z,1.50
2019-05-12T14:29:54.190Z,1.43
2019-05-12T14:32:24.055Z,1.70
2019-05-12T14:34:59.351Z,1.63
2019-05-12T14:37:23.814Z,1.80
2019-05-12T14:39:53.670Z,1.80
2019-05-12T14:42:26.054Z,1.47
2019-05-12T14:44:54.064Z,1.50
2019-05-12T14:47:25.748Z,1.40
2019-05-12T14:49:54.274Z,1.53
2019-05-12T14:52:22.262Z,1.40
2019-05-12T14:54:50.465Z,1.10
2019-05-12T14:57:18.775Z,1.10
2019-05-12T14:59:46.853Z,1.27
2019-05-12T15:02:19.492Z,1.07
2019-05-12T15:04:45.516Z,1.47
2019-05-12T15:07:15.282Z,1.20
2019-05-12T15:09:43.403Z,1.07
2019-05-12T15:12:13.878Z,1.20
2019-05-12T15:14:43.814Z,1.23
2019-05-12T15:17:13.787Z,0.90
2019-05-12T15:19:43.862Z,0.97
2019-05-12T15:22:14.545Z,1.10
2019-05-12T15:24:44.015Z,0.93
2019-05-12T15:27:13.543Z,1.00
2019-05-12T15:29:41.709Z,1.30
2019-05-12T15:32:09.863Z,1.20
2019-05-12T15:34:38.116Z,1.07
2019-05-12T15:37:06.559Z,0.93
2019-05-12T15:39:35.288Z,0.83
2019-05-12T15:42:03.676Z,1.13
2019-05-12T15:44:34.571Z,1.10
2019-05-12T15:47:03.848Z,0.90
2019-05-12T15:49:33.777Z,1.00
2019-05-12T15:52:03.662Z,1.10
2019-05-12T15:54:35.737Z,1.00
2019-05-12T15:57:04.233Z,0.80
2019-05-12T15:59:34.619Z,1.00
2019-05-12T16:02:12.411Z,0.80
2019-05-12T16:04:42.268Z,1.10
2019-05-12T16:07:04.081Z,0.90
2019-05-12T16:09:34.408Z,1.17
2019-05-12T16:12:09.595Z,1.00
2019-05-12T16:14:36.846Z,0.87
2019-05-12T16:17:06.010Z,0.90
2019-05-12T16:19:34.565Z,1.07
2019-05-12T16:22:03.634Z,1.10
2019-05-12T16:24:33.935Z,0.90
2019-05-12T16:27:03.649Z,0.90
2019-05-12T16:29:34.075Z,1.00
2019-05-12T16:32:04.443Z,1.17
2019-05-12T16:34:38.539Z,0.87
2019-05-12T16:37:04.095Z,0.70
2019-05-12T16:39:37.010Z,0.90
2019-05-12T16:42:06.206Z,0.80
2019-05-12T16:44:34.942Z,0.80
2019-05-12T16:47:04.291Z,1.10
2019-05-12T16:49:35.220Z,1.00
2019-05-12T16:52:04.098Z,0.77
2019-05-12T16:54:33.582Z,1.00
2019-05-12T16:57:06.347Z,1.00
2019-05-12T16:59:32.090Z,0.97
2019-05-12T17:02:08.027Z,0.90
2019-05-12T17:04:33.364Z,1.00
2019-05-12T17:07:01.322Z,0.90
2019-05-12T17:09:29.324Z,0.70
2019-05-12T17:11:57.456Z,0.77
2019-05-12T17:14:28.520Z,0.77
2019-05-12T17:16:57.221Z,0.80
2019-05-12T17:19:25.433Z,0.90
2019-05-12T17:21:57.636Z,0.83
2019-05-12T17:24:24.031Z,1.10
2019-05-12T17:26:52.127Z,1.47
2019-05-12T17:29:20.473Z,1.50
2019-05-12T17:31:48.622Z,1.47
2019-05-12T17:34:16.766Z,1.20
2019-05-12T17:36:45.168Z,0.87
2019-05-12T17:39:14.817Z,0.90
2019-05-12T17:41:45.560Z,1.03
2019-05-12T17:44:13.564Z,0.80
2019-05-12T17:46:43.902Z,0.90
2019-05-12T17:49:15.992Z,0.80
2019-05-12T17:51:42.283Z,0.93
2019-05-12T17:54:13.390Z,0.90
2019-05-12T17:56:40.479Z,0.80
2019-05-12T17:59:08.498Z,0.70
2019-05-12T18:01:36.801Z,0.80
2019-05-12T18:04:04.806Z,0.77
2019-05-12T18:06:34.092Z,0.80
2019-05-12T18:09:09.196Z,0.73
2019-05-12T18:11:36.614Z,0.70
2019-05-12T18:14:07.225Z,0.80
2019-05-12T18:16:35.644Z,0.80
2019-05-12T18:19:08.982Z,0.70
2019-05-12T18:21:35.589Z,0.70
2019-05-12T18:24:08.743Z,0.80
2019-05-12T18:26:34.026Z,0.50
2019-05-12T18:29:04.131Z,0.80
2019-05-12T18:31:33.441Z,0.70
2019-05-12T18:34:04.805Z,0.80
2019-05-12T18:36:34.216Z,0.70
2019-05-12T18:39:11.342Z,0.87
2019-05-12T18:41:34.949Z,0.80
2019-05-12T18:44:04.429Z,0.70
2019-05-12T18:46:36.176Z,0.77
2019-05-12T18:49:11.602Z,0.77
2019-05-12T18:51:34.292Z,0.70
2019-05-12T18:54:03.876Z,0.60
2019-05-12T18:56:33.596Z,0.70
2019-05-12T18:59:11.181Z,0.90
2019-05-12T19:01:33.545Z,0.93
2019-05-12T19:04:05.576Z,1.23
2019-05-12T19:06:35.013Z,1.23
2019-05-12T19:09:05.750Z,1.07
2019-05-12T19:11:41.619Z,0.80
2019-05-12T19:14:05.642Z,0.70
2019-05-12T19:16:34.871Z,0.70
2019-05-12T19:19:04.519Z,0.60
2019-05-12T19:21:32.883Z,1.10
2019-05-12T19:24:03.413Z,0.80
2019-05-12T19:26:40.575Z,0.90
2019-05-12T19:29:14.165Z,0.70
2019-05-12T19:31:51.887Z,0.80
2019-05-12T19:34:22.001Z,0.80
2019-05-12T19:36:49.411Z,0.70
2019-05-12T19:39:15.976Z,0.80
2019-05-12T19:41:44.099Z,0.63
2019-05-12T19:44:13.421Z,0.80
2019-05-12T19:46:46.136Z,0.60
2019-05-12T19:49:12.218Z,0.73
2019-05-12T19:51:49.397Z,0.70
2019-05-12T19:54:19.425Z,0.80
2019-05-12T19:56:47.583Z,1.00
2019-05-12T19:59:15.981Z,0.90
2019-05-12T20:01:53.583Z,0.90
2019-05-12T20:04:33.002Z,0.80
2019-05-12T20:06:54.435Z,1.03
2019-05-12T20:09:24.435Z,1.40
2019-05-12T20:11:53.652Z,0.90
2019-05-12T20:14:34.237Z,1.00
2019-05-12T20:17:01.974Z,0.90
2019-05-12T20:19:31.178Z,0.87
2019-05-12T20:22:03.358Z,0.90
2019-05-12T20:24:31.214Z,0.83
2019-05-12T20:26:59.491Z,0.70
2019-05-12T20:29:37.425Z,1.23
2019-05-12T20:32:05.500Z,1.00
2019-05-12T20:34:48.517Z,1.10
2019-05-12T20:37:12.612Z,1.00
2019-05-12T20:39:51.133Z,0.80
2019-05-12T20:42:17.786Z,1.33
2019-05-12T20:44:45.935Z,2.77
2019-05-12T20:47:15.872Z,2.73
2019-05-12T20:49:50.949Z,3.83
2019-05-12T20:52:14.514Z,2.57
2019-05-12T20:54:44.135Z,2.10
2019-05-12T20:57:14.135Z,1.60
2019-05-12T20:59:44.609Z,1.50
2019-05-12T21:02:14.099Z,1.50
2019-05-12T21:04:44.338Z,2.60
2019-05-12T21:07:21.227Z,3.40
2019-05-12T21:09:44.205Z,3.17
2019-05-12T21:12:13.852Z,2.20
2019-05-12T21:14:51.150Z,1.60
2019-05-12T21:17:15.855Z,1.40
2019-05-12T21:19:55.736Z,1.20
2019-05-12T21:22:14.265Z,1.23
2019-05-12T21:24:43.901Z,1.30
2019-05-12T21:27:18.267Z,1.20
2019-05-12T21:29:43.727Z,1.30
2019-05-12T21:32:16.562Z,1.50
2019-05-12T21:34:43.755Z,1.23
2019-05-12T21:37:13.932Z,0.97
2019-05-12T21:39:49.146Z,1.00
2019-05-12T21:42:13.278Z,1.10
2019-05-12T21:44:46.985Z,1.20
2019-05-12T21:47:13.938Z,1.27
2019-05-12T21:49:42.744Z,1.07
2019-05-12T21:52:13.628Z,1.20
2019-05-12T21:54:43.976Z,1.10
2019-05-12T21:57:12.130Z,0.93
2019-05-12T21:59:40.344Z,0.97
2019-05-12T22:02:09.074Z,1.20
2019-05-12T22:04:41.333Z,1.03
2019-05-12T22:07:07.249Z,1.10
2019-05-12T22:09:41.413Z,1.30
2019-05-12T22:12:05.439Z,0.90
2019-05-12T22:14:38.693Z,1.00
2019-05-12T22:17:05.933Z,1.13
2019-05-12T22:19:37.637Z,1.30
2019-05-12T22:22:05.137Z,0.90
2019-05-12T22:24:38.535Z,1.10
2019-05-12T22:27:05.060Z,0.90
2019-05-12T22:29:34.353Z,1.13
2019-05-12T22:32:04.848Z,0.97
2019-05-12T22:34:37.245Z,1.20
2019-05-12T22:37:04.086Z,1.10
2019-05-12T22:39:33.821Z,1.20
2019-05-12T22:42:03.515Z,0.97
2019-05-12T22:44:31.812Z,1.00
2019-05-12T22:47:06.546Z,1.17
2019-05-12T22:49:30.911Z,0.93
2019-05-12T22:52:02.823Z,1.00
2019-05-12T22:54:29.131Z,0.97
2019-05-12T22:56:57.221Z,1.13
2019-05-12T22:59:25.358Z,0.83
2019-05-12T23:01:54.184Z,0.90
2019-05-12T23:04:26.021Z,0.83
2019-05-12T23:06:52.854Z,0.80
2019-05-12T23:09:27.942Z,1.00
2019-05-12T23:11:53.573Z,0.90
2019-05-12T23:14:24.571Z,1.00
2019-05-12T23:16:54.362Z,0.90
2019-05-12T23:19:23.532Z,1.00
2019-05-12T23:21:55.350Z,1.00
2019-05-12T23:24:23.613Z,0.90
2019-05-12T23:26:53.851Z,0.87
2019-05-12T23:29:29.465Z,0.70
2019-05-12T23:31:53.679Z,0.83
2019-05-12T23:34:23.232Z,1.00
2019-05-12T23:36:56.816Z,0.80
2019-05-12T23:39:23.454Z,1.00
2019-05-12T23:41:53.630Z,1.10
2019-05-12T23:44:23.916Z,1.03
2019-05-12T23:46:53.807Z,1.00
2019-05-12T23:49:24.260Z,0.90
2019-05-12T23:51:54.224Z,0.90
2019-05-12T23:54:23.770Z,1.00
2019-05-12T23:56:53.670Z,1.00
2019-05-12T23:59:24.011Z,0.90
